createdAt,value
2023-03-25T00:08:44.757Z,3.55
2023-03-25T00:18:48.212Z,3.80
2023-03-25T00:28:50.152Z,3.75
2023-03-25T00:38:52.247Z,3.78
2023-03-25T00:48:55.829Z,3.80
2023-03-25T00:58:58.855Z,4.55
2023-03-25T01:09:05.027Z,3.72
2023-03-25T01:19:07.097Z,5.00
2023-03-25T01:29:09.357Z,4.57
2023-03-25T01:39:11.308Z,4.15
2023-03-25T01:49:23.996Z,4.68
2023-03-25T01:59:28.861Z,4.85
2023-03-25T02:09:30.876Z,4.65
2023-03-25T02:20:14.058Z,4.90
2023-03-25T02:30:49.159Z,5.70
2023-03-25T02:41:04.824Z,5.28
2023-03-25T02:51:23.097Z,5.63
2023-03-25T03:01:27.175Z,5.70
2023-03-25T03:11:58.913Z,6.28
2023-03-25T03:22:42.922Z,5.90
2023-03-25T03:32:57.944Z,5.97
2023-03-25T03:43:09.038Z,6.78
2023-03-25T03:53:18.685Z,6.80
2023-03-25T04:03:34.923Z,6.53
2023-03-25T04:13:49.813Z,7.72
2023-03-25T04:23:52.126Z,6.97
2023-03-25T04:33:55.068Z,7.65
2023-03-25T04:43:58.598Z,6.97
2023-03-25T04:54:01.176Z,7.63
2023-03-25T05:04:05.696Z,8.00
2023-03-25T05:14:09.929Z,8.60
2023-03-25T05:24:13.715Z,8.25
2023-03-25T05:34:17.594Z,8.73
2023-03-25T05:44:19.818Z,8.82
2023-03-25T05:54:28.763Z,8.80
2023-03-25T06:04:34.167Z,9.60
2023-03-25T06:14:38.188Z,8.38
2023-03-25T06:24:41.578Z,7.70
2023-03-25T06:34:43.714Z,8.45
2023-03-25T06:44:49.225Z,7.78
2023-03-25T06:54:51.176Z,8.00
2023-03-25T07:04:53.240Z,9.45
2023-03-25T07:15:00.380Z,8.73
2023-03-25T07:35:05.960Z,7.60
2023-03-25T07:45:08.590Z,6.95
2023-03-25T07:55:10.758Z,3.42
2023-03-25T08:05:12.799Z,4.47
2023-03-25T08:15:14.806Z,5.80
2023-03-25T08:25:16.887Z,6.28
2023-03-25T08:35:21.648Z,5.90
2023-03-25T08:45:23.615Z,5.90
2023-03-25T08:55:26.186Z,5.40
2023-03-25T09:05:28.239Z,5.57
2023-03-25T09:15:30.974Z,3.75
2023-03-25T09:25:33.471Z,4.53
2023-03-25T09:35:41.762Z,3.92
2023-03-25T09:45:47.442Z,4.97
2023-03-25T09:55:58.286Z,4.55
2023-03-25T10:06:14.315Z,3.40
2023-03-25T10:16:36.142Z,3.33
2023-03-25T10:27:03.909Z,2.58
2023-03-25T10:37:14.805Z,2.75
2023-03-25T10:47:21.313Z,2.55
2023-03-25T10:57:32.682Z,2.33
2023-03-25T11:07:43.998Z,2.67
2023-03-25T11:17:48.075Z,2.63
2023-03-25T11:28:05.599Z,2.60
2023-03-25T11:38:17.091Z,2.85
2023-03-25T11:48:30.960Z,3.17
2023-03-25T11:58:39.586Z,2.55
2023-03-25T12:08:49.089Z,1.92
2023-03-25T12:19:23.317Z,2.33
2023-03-25T12:30:19.396Z,2.90
2023-03-25T12:40:51.597Z,2.42
2023-03-25T12:51:00.047Z,0.95
2023-03-25T13:01:23.902Z,3.05
2023-03-25T13:11:33.090Z,2.25
2023-03-25T13:21:46.782Z,2.45
2023-03-25T13:31:50.875Z,3.20
2023-03-25T13:42:01.253Z,3.58
2023-03-25T13:52:04.147Z,4.10
2023-03-25T14:02:32.564Z,3.53
2023-03-25T14:12:43.316Z,4.78
2023-03-25T14:22:45.494Z,2.83
2023-03-25T14:32:47.957Z,3.22
2023-03-25T14:43:00.627Z,1.58
2023-03-25T14:53:07.091Z,1.08
2023-03-25T15:03:19.845Z,1.35
2023-03-25T15:13:27.718Z,1.20
2023-03-25T15:23:48.306Z,1.92
2023-03-25T15:34:03.791Z,0.93
2023-03-25T15:44:36.934Z,2.50
2023-03-25T15:55:13.100Z,2.78
2023-03-25T16:05:17.786Z,3.97
2023-03-25T16:15:28.839Z,2.60
2023-03-25T16:25:38.445Z,2.67
2023-03-25T16:36:02.437Z,4.07
2023-03-25T16:46:09.738Z,3.90
2023-03-25T17:06:47.080Z,4.88
2023-03-25T17:16:53.048Z,5.47
2023-03-25T17:27:09.139Z,7.65
2023-03-25T17:37:19.803Z,6.82
2023-03-25T17:47:24.223Z,6.90
2023-03-25T17:57:27.017Z,5.03
2023-03-25T18:07:34.269Z,4.70
2023-03-25T18:17:45.151Z,5.88
2023-03-25T18:27:53.131Z,4.97
2023-03-25T18:37:58.240Z,4.85
2023-03-25T18:48:03.767Z,3.28
2023-03-25T18:58:06.619Z,2.35
2023-03-25T19:08:18.523Z,1.95
2023-03-25T19:18:26.202Z,1.55
2023-03-25T19:28:29.321Z,1.60
2023-03-25T19:38:41.920Z,2.45
2023-03-25T19:48:47.394Z,3.55
2023-03-25T19:58:50.289Z,3.85
2023-03-25T20:09:06.345Z,6.00
2023-03-25T20:19:21.996Z,9.75
2023-03-25T20:29:33.183Z,13.93
2023-03-25T20:39:46.273Z,10.50
2023-03-25T20:49:49.285Z,9.00
2023-03-25T20:59:58.852Z,10.85
2023-03-25T21:10:20.848Z,11.27
2023-03-25T21:20:30.402Z,10.43
2023-03-25T21:30:33.259Z,11.05
2023-03-25T21:40:40.015Z,11.63
2023-03-25T22:00:46.384Z,9.13
2023-03-25T22:11:05.683Z,8.73
2023-03-25T22:21:23.599Z,8.27
2023-03-25T22:31:31.284Z,7.78
2023-03-25T22:41:33.509Z,7.10
2023-03-25T22:51:35.635Z,7.07
2023-03-25T23:01:38.396Z,7.28
2023-03-25T23:11:44.546Z,5.40
2023-03-25T23:21:57.907Z,5.72
2023-03-25T23:32:06.146Z,5.38
2023-03-25T23:42:08.615Z,5.40
2023-03-25T23:52:13.814Z,4.65
